Time;durP1;ratioP1;P1;durP2;ratioP2;P2;SDS_P1;SDS_P2;PMS_P1;PMS_P2;Temp;Humidity;BMP_temperature;BMP_pressure;BME280_temperature;BME280_humidity;BME280_pressure;Samples;Min_cycle;Max_cycle;Signal;HPM_P1;HPM_P2
2022/06/16 00:00:44;;;;;;;4.25;2.00;;;;;;;20.31;47.82;100138.00;4346566;33;33854;-84
2022/06/16 00:03:12;;;;;;;4.43;2.33;;;;;;;20.21;48.18;100137.91;4335512;33;34467;-83
2022/06/16 00:05:42;;;;;;;5.47;2.37;;;;;;;20.11;48.30;100123.88;4335246;33;34213;-84
2022/06/16 00:08:12;;;;;;;4.55;2.10;;;;;;;20.20;48.05;100137.06;4335357;33;32937;-84
2022/06/16 00:11:16;;;;;;;5.07;2.15;;;;;;;20.14;48.25;100134.50;4347108;33;33675;-83
2022/06/16 00:13:39;;;;;;;4.75;1.98;;;;;;;20.16;48.12;100129.47;4347019;33;35097;-83
2022/06/16 00:16:07;;;;;;;4.18;2.20;;;;;;;20.15;47.69;100128.63;4334631;33;33840;-83
2022/06/16 00:18:36;;;;;;;3.08;1.80;;;;;;;20.04;47.48;100130.50;4334722;33;32000;-84
2022/06/16 00:21:05;;;;;;;5.47;2.03;;;;;;;19.84;48.25;100121.03;4334646;33;33638;-83
2022/06/16 00:23:33;;;;;;;7.68;2.47;;;;;;;20.01;47.77;100127.38;4347184;32;33023;-84
2022/06/16 00:26:13;;;;;;;3.83;2.10;;;;;;;20.02;47.83;100121.56;4335120;33;33952;-84
2022/06/16 00:28:46;;;;;;;4.30;2.20;;;;;;;20.06;47.95;100119.94;4346686;33;34203;-84
2022/06/16 00:31:16;;;;;;;5.87;2.40;;;;;;;20.01;48.39;100122.66;4334929;33;33697;-84
2022/06/16 00:33:44;;;;;;;3.95;1.98;;;;;;;20.00;48.50;100114.56;4346494;33;34336;-83
2022/06/16 00:36:12;;;;;;;5.68;2.30;;;;;;;19.97;48.50;100113.12;4334793;33;32588;-84
2022/06/16 00:38:40;;;;;;;4.03;2.28;;;;;;;19.93;48.50;100114.75;4334101;33;31989;-84
2022/06/16 00:41:08;;;;;;;4.90;2.30;;;;;;;19.86;48.71;100118.84;4334472;33;32249;-84
2022/06/16 00:43:39;;;;;;;5.82;2.10;;;;;;;19.78;48.91;100117.34;4346797;33;34587;-83
2022/06/16 00:46:18;;;;;;;6.40;2.00;;;;;;;19.79;48.91;100119.03;4334482;33;33725;-84
2022/06/16 00:48:50;;;;;;;4.07;2.00;;;;;;;19.70;49.24;100115.84;4334483;33;32589;-83
2022/06/16 00:51:25;;;;;;;4.87;2.20;;;;;;;19.85;48.79;100112.41;4346097;33;33860;-84
2022/06/16 00:53:56;;;;;;;3.30;1.90;;;;;;;19.87;48.81;100106.59;4346534;33;33779;-83
2022/06/16 00:56:24;;;;;;;5.80;2.53;;;;;;;19.86;48.93;100114.09;4346247;33;33564;-84
2022/06/16 00:58:56;;;;;;;6.85;2.40;;;;;;;19.82;49.02;100104.59;4334408;33;34398;-84
2022/06/16 01:01:24;;;;;;;5.85;2.25;;;;;;;19.63;49.48;100100.44;4346001;33;32361;-84
2022/06/16 01:06:39;;;;;;;4.20;2.30;;;;;;;19.75;49.05;100101.16;4346559;33;33658;-84
2022/06/16 01:09:17;;;;;;;4.90;2.33;;;;;;;19.73;49.09;100092.22;4334164;33;31870;-84
2022/06/16 01:15:00;;;;;;;4.68;2.45;;;;;;;19.63;49.51;100087.34;4348934;33;35429;-83
2022/06/16 01:17:53;;;;;;;3.62;2.10;;;;;;;19.55;49.76;100084.16;4347934;33;33376;-84
2022/06/16 01:20:39;;;;;;;3.70;2.28;;;;;;;19.56;49.69;100086.69;4348121;33;32854;-84
2022/06/16 01:23:36;;;;;;;6.45;2.30;;;;;;;19.57;49.74;100076.41;4348016;33;32061;-85
2022/06/16 01:26:23;;;;;;;4.35;2.40;;;;;;;19.64;49.60;100077.91;4344141;33;34714;-84
2022/06/16 01:29:20;;;;;;;5.10;2.37;;;;;;;19.56;49.89;100080.28;4360346;32;34616;-84
2022/06/16 01:32:07;;;;;;;5.28;2.47;;;;;;;19.46;50.14;100077.37;4347564;33;32446;-85
2022/06/16 01:34:48;;;;;;;6.43;2.60;;;;;;;19.37;50.34;100077.81;4335847;33;32264;-84
2022/06/16 01:37:24;;;;;;;4.78;2.12;;;;;;;19.49;49.99;100074.06;4347969;33;33021;-83
2022/06/16 01:40:12;;;;;;;4.82;2.58;;;;;;;19.46;50.17;100069.00;4334926;33;34154;-84
2022/06/16 01:42:45;;;;;;;4.93;2.85;;;;;;;19.48;50.22;100077.94;4347387;33;33874;-85
2022/06/16 01:45:15;;;;;;;6.60;2.50;;;;;;;19.38;50.55;100073.91;4335070;33;33245;-84
2022/06/16 01:47:46;;;;;;;5.85;2.37;;;;;;;19.36;50.59;100073.34;4347821;33;34721;-84
2022/06/16 01:50:20;;;;;;;6.07;2.42;;;;;;;19.36;50.59;100072.50;4347347;33;34085;-85
2022/06/16 01:53:02;;;;;;;5.68;2.40;;;;;;;19.27;50.83;100071.25;4335570;33;33698;-85
2022/06/16 01:55:33;;;;;;;4.45;2.35;;;;;;;19.26;50.97;100069.56;4335527;33;33758;-84
2022/06/16 01:58:12;;;;;;;5.47;2.60;;;;;;;19.29;50.81;100066.28;4335635;33;34437;-84
2022/06/16 02:00:43;;;;;;;4.65;2.25;;;;;;;19.15;51.23;100065.78;4335956;33;34741;-83
2022/06/16 02:03:25;;;;;;;5.32;2.40;;;;;;;19.02;51.66;100069.78;4335798;32;33274;-83
2022/06/16 02:05:57;;;;;;;5.57;2.53;;;;;;;19.09;51.45;100069.59;4335691;33;33968;-84
2022/06/16 02:08:38;;;;;;;5.72;2.62;;;;;;;19.20;51.08;100057.53;4335660;33;33944;-84
2022/06/16 02:11:27;;;;;;;5.47;2.53;;;;;;;19.18;51.28;100061.66;4335693;33;32391;-84
2022/06/16 02:13:57;;;;;;;7.15;2.70;;;;;;;19.19;51.27;100063.34;4335802;33;33447;-84
2022/06/16 02:16:31;;;;;;;5.20;2.60;;;;;;;19.24;51.10;100061.47;4347520;33;33856;-84
2022/06/16 02:19:00;;;;;;;5.95;2.50;;;;;;;19.20;51.27;100067.81;4336008;33;34605;-84
2022/06/16 02:21:42;;;;;;;6.05;2.92;;;;;;;19.16;51.41;100058.28;4335726;33;34220;-84
2022/06/16 02:24:15;;;;;;;5.90;2.90;;;;;;;19.11;51.76;100072.97;4335892;33;32741;-84
2022/06/16 02:26:44;;;;;;;4.65;2.72;;;;;;;19.09;51.80;100058.47;4335996;33;34456;-85
2022/06/16 02:29:29;;;;;;;7.18;2.90;;;;;;;19.14;51.65;100061.31;4335661;33;33935;-85
2022/06/16 02:32:24;;;;;;;4.50;2.67;;;;;;;19.22;51.42;100060.03;4347360;33;33083;-84
2022/06/16 02:35:10;;;;;;;5.85;2.87;;;;;;;19.14;51.66;100061.31;4347318;33;33102;-85
2022/06/16 02:38:15;;;;;;;6.05;2.70;;;;;;;19.15;51.66;100064.94;4347342;33;33268;-84
2022/06/16 02:40:49;;;;;;;5.57;2.60;;;;;;;19.06;52.01;100058.97;4359612;32;35089;-84
2022/06/16 02:43:42;;;;;;;5.03;2.80;;;;;;;18.93;52.45;100065.75;4335133;33;32623;-84
2022/06/16 02:46:36;;;;;;;5.22;3.08;;;;;;;18.93;52.57;100060.19;4359760;32;33432;-84
2022/06/16 02:49:10;;;;;;;5.35;2.97;;;;;;;18.92;52.60;100066.00;4347616;33;32556;-84
2022/06/16 02:51:43;;;;;;;5.03;2.87;;;;;;;18.89;52.68;100067.34;4359862;32;34341;-84
2022/06/16 02:54:32;;;;;;;5.47;3.00;;;;;;;18.86;52.64;100064.22;4335608;32;32592;-84
2022/06/16 02:57:10;;;;;;;6.10;3.35;;;;;;;18.82;52.92;100074.19;4362276;32;33546;-84
2022/06/16 02:59:47;;;;;;;6.12;2.67;;;;;;;18.79;53.06;100069.16;4364489;32;33730;-84
2022/06/16 03:02:18;;;;;;;7.03;3.08;;;;;;;18.82;53.16;100071.41;4353054;32;34276;-84
2022/06/16 03:04:50;;;;;;;6.75;3.08;;;;;;;18.78;53.12;100073.03;4352647;32;32546;-75
2022/06/16 03:07:21;;;;;;;5.25;2.90;;;;;;;18.72;53.27;100075.72;4340266;32;32138;-90
2022/06/16 03:09:54;;;;;;;4.62;2.95;;;;;;;18.70;53.52;100068.72;4352640;32;32517;-82
2022/06/16 03:12:27;;;;;;;7.18;2.92;;;;;;;18.83;53.01;100073.94;4340705;32;33761;-82
2022/06/16 03:14:57;;;;;;;6.15;3.30;;;;;;;18.84;53.11;100066.44;4352079;32;32603;-83
2022/06/16 03:17:29;;;;;;;7.32;3.10;;;;;;;18.90;53.04;100070.97;4352707;32;33517;-83
2022/06/16 03:20:00;;;;;;;10.10;3.22;;;;;;;18.92;53.04;100069.62;4352574;32;32122;-82
2022/06/16 03:22:29;;;;;;;5.00;3.10;;;;;;;18.94;52.99;100072.13;4352612;32;33384;-82
2022/06/16 03:24:58;;;;;;;6.68;3.10;;;;;;;18.87;53.34;100074.25;4352362;32;34344;-82
2022/06/16 03:27:26;;;;;;;6.82;3.67;;;;;;;18.81;53.67;100067.78;4352295;32;31909;-82
2022/06/16 03:29:55;;;;;;;7.78;3.50;;;;;;;18.86;53.70;100069.78;4352634;32;34705;-82
2022/06/16 03:32:26;;;;;;;8.93;3.22;;;;;;;18.91;53.52;100064.31;4352410;32;33198;-82
2022/06/16 03:34:58;;;;;;;7.07;3.08;;;;;;;18.90;53.50;100073.75;4352276;32;33161;-83
2022/06/16 03:37:27;;;;;;;5.22;2.75;;;;;;;18.91;53.58;100069.88;4352343;32;32038;-82
2022/06/16 03:39:59;;;;;;;7.62;2.85;;;;;;;18.71;54.38;100078.75;4339866;32;34123;-83
2022/06/16 03:42:27;;;;;;;5.30;2.92;;;;;;;18.82;54.13;100075.03;4352887;32;34547;-83
2022/06/16 03:44:57;;;;;;;5.95;3.37;;;;;;;18.94;53.69;100072.97;4340523;32;32919;-82
2022/06/16 03:47:28;;;;;;;6.05;3.08;;;;;;;18.78;54.59;100068.31;4352475;32;33451;-83
2022/06/16 03:49:57;;;;;;;4.57;2.65;;;;;;;18.74;54.83;100075.47;4352610;32;34259;-82
2022/06/16 03:52:28;;;;;;;6.12;3.17;;;;;;;18.76;54.97;100073.28;4339931;32;33795;-82
2022/06/16 03:55:03;;;;;;;7.78;3.37;;;;;;;18.67;55.38;100074.78;4340798;32;32475;-83
2022/06/16 03:57:32;;;;;;;5.72;3.25;;;;;;;18.69;55.54;100075.38;4352743;32;33468;-77
2022/06/16 04:00:00;;;;;;;7.32;3.42;;;;;;;18.69;55.68;100076.22;4352212;32;32593;-81
2022/06/16 04:02:34;;;;;;;6.20;3.50;;;;;;;18.75;55.75;100077.16;4340427;32;34688;-81
2022/06/16 04:05:07;;;;;;;5.78;3.67;;;;;;;18.80;55.51;100079.19;4364576;32;34447;-81
2022/06/16 04:07:36;;;;;;;7.45;3.80;;;;;;;18.92;55.04;100077.13;4352235;32;31962;-82
2022/06/16 04:10:06;;;;;;;6.57;3.58;;;;;;;19.06;54.66;100087.63;4364604;32;33708;-81
2022/06/16 04:12:34;;;;;;;9.13;4.05;;;;;;;19.14;54.56;100082.75;4364018;32;32901;-81
2022/06/16 04:15:02;;;;;;;6.93;4.00;;;;;;;19.20;54.76;100090.91;4352464;32;33996;-81
2022/06/16 04:17:32;;;;;;;7.35;3.95;;;;;;;19.23;55.03;100092.34;4339661;32;32019;-81
2022/06/16 04:20:14;;;;;;;8.65;4.22;;;;;;;19.35;54.95;100099.47;4364517;32;33654;-81
2022/06/16 04:22:43;;;;;;;9.45;4.37;;;;;;;19.40;54.93;100094.00;4352439;32;32893;-81
2022/06/16 04:25:14;;;;;;;7.55;4.20;;;;;;;19.51;54.69;100094.09;4351838;32;34129;-82
2022/06/16 04:27:43;;;;;;;10.07;4.05;;;;;;;19.70;53.89;100098.28;4351902;32;31949;-82
2022/06/16 04:30:13;;;;;;;9.05;3.92;;;;;;;19.59;54.02;100099.25;4352307;32;33841;-81
2022/06/16 04:32:43;;;;;;;8.05;4.22;;;;;;;19.61;54.11;100097.06;4339802;32;34451;-82
2022/06/16 04:35:11;;;;;;;11.00;4.60;;;;;;;19.67;54.29;100107.16;4364285;32;34165;-81
2022/06/16 04:37:44;;;;;;;7.57;4.18;;;;;;;19.87;53.80;100098.22;4351539;32;32959;-81
2022/06/16 04:40:12;;;;;;;6.20;4.15;;;;;;;19.86;53.82;100099.34;4351539;32;33597;-82
2022/06/16 04:42:42;;;;;;;7.18;3.83;;;;;;;19.88;54.08;100099.91;4352474;32;35561;-82
2022/06/16 04:45:11;;;;;;;8.85;4.05;;;;;;;19.90;54.70;100095.78;4352495;32;34507;-81
2022/06/16 04:47:41;;;;;;;9.85;4.53;;;;;;;19.97;54.95;100093.63;4353971;32;33805;-81
2022/06/16 04:50:17;;;;;;;8.35;4.68;;;;;;;20.14;54.63;100096.31;4353472;32;32346;-81
2022/06/16 04:52:46;;;;;;;7.97;4.00;;;;;;;20.18;54.80;100099.41;4363063;32;33016;-81
2022/06/16 04:55:15;;;;;;;6.85;4.18;;;;;;;20.30;54.64;100094.53;4365129;32;33850;-81
2022/06/16 04:57:45;;;;;;;8.30;4.40;;;;;;;20.38;54.55;100100.50;4363182;32;33050;-81
2022/06/16 05:00:15;;;;;;;8.18;4.60;;;;;;;20.44;54.38;100093.03;4364621;32;33328;-81
2022/06/16 05:02:51;;;;;;;11.05;4.30;;;;;;;20.50;54.33;100094.75;4377587;32;35328;-74
2022/06/16 05:05:19;;;;;;;7.75;4.53;;;;;;;20.65;54.09;100100.47;4365690;32;34689;-75
2022/06/16 05:07:48;;;;;;;8.27;4.47;;;;;;;20.63;54.83;100102.69;4353519;32;31974;-76
2022/06/16 05:10:18;;;;;;;9.32;4.20;;;;;;;20.75;54.87;100093.31;4370760;32;33763;-75
2022/06/16 05:12:46;;;;;;;7.80;3.72;;;;;;;20.83;54.29;100095.59;4365860;32;34278;-76
2022/06/16 05:15:13;;;;;;;6.78;3.83;;;;;;;20.97;53.50;100099.59;4365514;32;34260;-79
2022/06/16 05:17:48;;;;;;;12.50;6.30;;;;;;;20.96;53.30;100095.13;4364871;32;31897;-80
2022/06/16 05:20:18;;;;;;;8.73;4.75;;;;;;;20.94;53.50;100094.56;4353549;32;34569;-79
2022/06/16 05:22:51;;;;;;;12.88;5.85;;;;;;;21.16;53.36;100094.44;4354325;32;35233;-79
2022/06/16 05:25:19;;;;;;;9.27;4.40;;;;;;;21.28;52.93;100098.75;4340909;32;35019;-79
2022/06/16 05:27:50;;;;;;;7.80;4.78;;;;;;;21.29;53.77;100100.44;4365301;32;32092;-79
2022/06/16 05:30:20;;;;;;;10.77;5.90;;;;;;;21.36;53.90;100101.03;4352815;32;33746;-80
2022/06/16 05:32:48;;;;;;;8.73;5.07;;;;;;;21.61;53.30;100099.47;4352066;32;33114;-79
2022/06/16 05:35:18;;;;;;;7.18;4.18;;;;;;;21.65;53.33;100093.06;4353536;32;34709;-80
2022/06/16 05:37:46;;;;;;;7.70;5.10;;;;;;;21.81;52.54;100094.00;4352549;32;32060;-80
2022/06/16 05:40:29;;;;;;;8.40;4.80;;;;;;;21.77;53.26;100095.66;4342171;32;33262;-80
2022/06/16 05:43:08;;;;;;;13.27;4.68;;;;;;;21.91;52.23;100090.41;4353139;32;34056;-80
2022/06/16 05:45:42;;;;;;;9.68;4.10;;;;;;;21.99;52.70;100087.91;4342451;32;33336;-80
2022/06/16 05:48:15;;;;;;;9.65;4.05;;;;;;;22.08;51.84;100087.41;4353104;32;33834;-80
2022/06/16 05:50:51;;;;;;;7.43;3.92;;;;;;;22.17;52.01;100088.53;4365446;32;34037;-79
2022/06/16 05:53:19;;;;;;;11.98;3.97;;;;;;;22.28;51.21;100095.84;4353444;32;35541;-80
2022/06/16 05:55:49;;;;;;;9.10;3.50;;;;;;;22.32;50.76;100091.37;4352930;32;34187;-79
2022/06/16 05:58:20;;;;;;;10.90;3.58;;;;;;;22.43;49.78;100084.69;4364741;32;34298;-79
2022/06/16 06:00:50;;;;;;;8.85;3.53;;;;;;;22.49;48.69;100082.72;4364853;32;32995;-79
2022/06/16 06:03:24;;;;;;;7.60;3.40;;;;;;;22.59;48.63;100094.78;4352988;32;33862;-79
2022/06/16 06:05:57;;;;;;;8.02;3.35;;;;;;;22.60;49.05;100082.47;4365006;32;33867;-79
2022/06/16 06:16:58;;;;;;;8.10;3.20;;;;;;;22.96;48.48;100079.69;4365980;32;34088;-79
2022/06/16 06:19:31;;;;;;;10.15;3.33;;;;;;;22.98;46.98;100075.47;4364877;32;33228;-79
2022/06/16 06:22:19;;;;;;;7.93;3.10;;;;;;;23.06;47.33;100079.66;4364862;32;33727;-79
2022/06/16 06:24:53;;;;;;;7.78;2.97;;;;;;;23.02;46.88;100081.34;4364905;32;34870;-79
2022/06/16 06:27:31;;;;;;;8.68;3.30;;;;;;;23.15;46.59;100083.59;4351405;32;33612;-79
2022/06/16 06:30:06;;;;;;;7.28;3.10;;;;;;;23.27;47.40;100080.47;4363904;32;33332;-79
2022/06/16 06:32:36;;;;;;;9.60;3.50;;;;;;;23.30;47.16;100082.72;4352094;32;32280;-79
2022/06/16 06:35:05;;;;;;;6.60;2.83;;;;;;;23.38;46.15;100081.31;4378101;32;35338;-79
2022/06/16 06:37:32;;;;;;;5.85;3.10;;;;;;;23.45;46.15;100081.81;4365121;32;33996;-80
2022/06/16 06:40:03;;;;;;;7.10;2.85;;;;;;;23.55;44.94;100079.03;4364572;32;33762;-79
2022/06/16 06:42:32;;;;;;;10.85;2.83;;;;;;;23.63;44.55;100079.28;4353071;32;33899;-79
2022/06/16 06:45:06;;;;;;;6.03;2.80;;;;;;;23.72;44.05;100090.72;4353006;32;34587;-79
2022/06/16 06:47:40;;;;;;;7.20;2.78;;;;;;;23.82;43.75;100090.69;4365298;32;34023;-79
2022/06/16 06:50:18;;;;;;;7.05;2.50;;;;;;;23.93;42.86;100086.72;4364680;32;32738;-79
2022/06/16 06:52:47;;;;;;;6.30;2.40;;;;;;;23.89;42.25;100081.97;4351328;32;32096;-79
2022/06/16 06:55:16;;;;;;;6.78;2.72;;;;;;;24.00;42.25;100079.97;4339191;32;33954;-79
2022/06/16 06:57:48;;;;;;;6.28;2.75;;;;;;;24.21;42.23;100081.50;4352859;32;34180;-79
2022/06/16 07:00:17;;;;;;;9.93;2.80;;;;;;;24.33;43.07;100082.03;4352502;32;33551;-79
2022/06/16 07:02:45;;;;;;;7.65;2.90;;;;;;;24.33;43.91;100087.63;4364930;32;33597;-79
2022/06/16 07:05:15;;;;;;;6.53;3.10;;;;;;;24.47;44.07;100085.03;4351932;32;35302;-79
2022/06/16 07:07:49;;;;;;;11.30;2.87;;;;;;;24.59;42.99;100080.72;4351599;32;34152;-79
2022/06/16 07:10:17;;;;;;;5.68;3.15;;;;;;;24.56;41.44;100080.47;4352317;32;32151;-79
2022/06/16 07:12:45;;;;;;;6.47;2.45;;;;;;;24.74;40.86;100081.72;4365032;32;33918;-78
2022/06/16 07:15:17;;;;;;;9.82;3.40;;;;;;;24.89;41.31;100087.22;4340423;32;33569;-78
2022/06/16 07:17:47;;;;;;;5.72;2.53;;;;;;;24.90;41.73;100083.25;4364433;32;34521;-79
2022/06/16 07:20:18;;;;;;;4.93;2.75;;;;;;;25.01;41.18;100081.25;4352338;32;34435;-79
2022/06/16 07:22:46;;;;;;;9.73;2.75;;;;;;;25.09;41.31;100072.19;4352385;32;33960;-79
2022/06/16 07:25:21;;;;;;;12.35;3.10;;;;;;;25.00;40.99;100063.56;4351814;32;32946;-79
2022/06/16 07:27:50;;;;;;;9.07;2.75;;;;;;;25.03;40.71;100073.34;4339934;32;33559;-78
2022/06/16 07:30:19;;;;;;;25.90;4.80;;;;;;;25.16;41.10;100069.88;4352459;32;33226;-79
2022/06/16 07:32:49;;;;;;;14.57;3.35;;;;;;;25.32;41.10;100070.53;4340421;32;33976;-79
2022/06/16 07:35:21;;;;;;;8.88;2.97;;;;;;;25.40;42.05;100078.28;4352518;32;33727;-79
2022/06/16 07:37:49;;;;;;;8.32;3.05;;;;;;;25.42;41.54;100065.62;4352414;32;33883;-79
2022/06/16 07:40:24;;;;;;;8.15;2.70;;;;;;;25.54;40.34;100062.41;4352576;32;34101;-78
2022/06/16 07:42:57;;;;;;;7.70;2.87;;;;;;;25.57;40.92;100064.63;4351940;32;31612;-79
2022/06/16 07:45:34;;;;;;;5.43;2.75;;;;;;;25.68;40.63;100069.00;4365237;32;35186;-79
2022/06/16 07:48:08;;;;;;;5.50;2.60;;;;;;;25.69;40.52;100065.06;4364853;32;33704;-79
2022/06/16 07:50:39;;;;;;;6.43;2.60;;;;;;;25.85;39.42;100060.09;4364635;32;33865;-78
2022/06/16 07:53:08;;;;;;;6.20;2.55;;;;;;;25.91;39.32;100061.69;4357484;32;33696;-79
2022/06/16 07:55:37;;;;;;;17.02;3.60;;;;;;;25.96;38.41;100069.25;4359396;32;34183;-79
2022/06/16 07:58:11;;;;;;;7.47;2.95;;;;;;;25.96;38.56;100061.63;4378486;32;34079;-79
2022/06/16 08:00:39;;;;;;;7.15;2.55;;;;;;;26.06;37.64;100058.66;4366434;32;33563;-78
2022/06/16 08:03:10;;;;;;;4.72;2.00;;;;;;;26.07;36.26;100054.69;4367050;32;33827;-79
2022/06/16 08:05:42;;;;;;;5.87;2.67;;;;;;;26.33;35.10;100052.41;4367002;32;34563;-79
2022/06/16 08:08:13;;;;;;;10.10;3.62;;;;;;;26.46;35.39;100051.63;4375796;32;34090;-79
2022/06/16 08:10:43;;;;;;;4.82;2.40;;;;;;;26.49;36.44;100045.38;4351554;32;33732;-79
2022/06/16 08:13:16;;;;;;;6.80;2.47;;;;;;;26.61;36.13;100044.91;4352276;32;32516;-79
2022/06/16 08:15:50;;;;;;;5.87;2.45;;;;;;;26.72;35.95;100048.38;4363982;32;34470;-79
2022/06/16 08:18:23;;;;;;;5.50;2.37;;;;;;;26.71;32.46;100046.69;4363859;32;34155;-79
2022/06/16 08:20:52;;;;;;;12.70;2.70;;;;;;;26.86;33.66;100052.06;4376367;32;33585;-79
2022/06/16 08:23:20;;;;;;;9.20;2.97;;;;;;;27.16;34.53;100050.75;4364380;32;33709;-79
2022/06/16 08:25:50;;;;;;;38.55;4.75;;;;;;;27.30;34.16;100051.56;4363761;32;35243;-79
2022/06/16 08:28:18;;;;;;;6.97;2.40;;;;;;;27.40;35.52;100056.19;4350480;32;33792;-79
2022/06/16 08:30:46;;;;;;;5.62;2.60;;;;;;;27.48;33.51;100058.28;4364187;32;33409;-79
2022/06/16 08:33:18;;;;;;;8.10;2.40;;;;;;;27.58;33.09;100054.41;4362334;32;33815;-81
2022/06/16 08:35:49;;;;;;;5.75;2.30;;;;;;;27.74;34.02;100058.63;4361503;32;35668;-81
2022/06/16 08:38:17;;;;;;;3.78;1.90;;;;;;;27.79;33.04;100056.53;4362897;32;32567;-82
2022/06/16 08:41:11;;;;;;;5.47;1.73;;;;;;;27.88;30.86;100063.13;4365519;32;34210;-83
2022/06/16 08:43:54;;;;;;;5.57;1.67;;;;;;;27.94;27.20;100051.72;4339033;32;33505;-82
2022/06/16 08:46:27;;;;;;;6.97;2.25;;;;;;;28.10;27.03;100056.69;4348948;32;33427;-82
2022/06/16 08:49:18;;;;;;;5.25;2.22;;;;;;;28.14;28.85;100060.53;4336960;32;32419;-83
2022/06/16 08:51:51;;;;;;;4.22;2.08;;;;;;;28.30;27.63;100058.25;4374559;32;33407;-82
2022/06/16 08:54:35;;;;;;;4.45;2.10;;;;;;;28.31;27.93;100051.44;4355680;32;34768;-81
2022/06/16 08:57:14;;;;;;;5.85;2.30;;;;;;;28.36;28.13;100053.31;4343582;32;33536;-82
2022/06/16 08:59:54;;;;;;;4.55;2.20;;;;;;;28.54;29.21;100055.16;4366251;32;33003;-82
2022/06/16 09:02:43;;;;;;;5.90;2.40;;;;;;;28.62;29.59;100059.16;4374865;32;33461;-81
2022/06/16 09:05:19;;;;;;;8.35;2.78;;;;;;;28.76;30.33;100059.94;4357475;32;32450;-82
2022/06/16 09:08:14;;;;;;;3.90;2.35;;;;;;;28.91;29.67;100053.94;4382092;32;34408;-82
2022/06/16 09:10:56;;;;;;;5.43;2.30;;;;;;;29.00;28.93;100056.81;4364808;32;34701;-82
2022/06/16 09:13:38;;;;;;;5.62;2.58;;;;;;;29.11;28.55;100047.75;4365146;32;32706;-81
2022/06/16 09:16:12;;;;;;;4.62;2.12;;;;;;;29.07;28.63;100041.09;4367971;32;32051;-82
2022/06/16 09:18:57;;;;;;;5.82;2.53;;;;;;;29.28;28.29;100041.34;4367430;32;34438;-76
2022/06/16 09:21:31;;;;;;;23.95;4.00;;;;;;;29.21;27.91;100043.81;4357959;32;33446;-75
2022/06/16 09:24:20;;;;;;;7.37;3.47;;;;;;;29.27;29.03;100041.66;4370402;32;33709;-77
2022/06/16 09:26:57;;;;;;;7.97;2.80;;;;;;;29.38;29.30;100043.03;4377118;32;34562;-78
2022/06/16 09:29:31;;;;;;;5.80;2.60;;;;;;;29.36;30.36;100042.53;4372364;32;35351;-77
2022/06/16 09:32:09;;;;;;;6.37;2.80;;;;;;;29.36;29.90;100034.88;4363083;32;34024;-78
2022/06/16 09:34:46;;;;;;;5.03;2.37;;;;;;;29.44;29.93;100044.59;4364402;32;33884;-78
2022/06/16 09:37:31;;;;;;;5.75;2.28;;;;;;;29.54;28.87;100035.84;4338664;32;34741;-78
2022/06/16 09:40:22;;;;;;;6.00;2.50;;;;;;;29.60;28.19;100043.00;4364615;32;35102;-78
2022/06/16 09:43:09;;;;;;;4.68;2.00;;;;;;;29.64;29.04;100018.56;4378923;32;34242;-78
2022/06/16 09:45:48;;;;;;;4.87;2.30;;;;;;;29.99;25.19;100027.97;4365709;32;33645;-78
2022/06/16 09:48:29;;;;;;;6.18;1.85;;;;;;;29.93;25.86;100012.28;4353027;32;34061;-78
2022/06/16 09:51:12;;;;;;;5.25;1.80;;;;;;;30.06;25.69;100004.84;4365295;32;34292;-78
2022/06/16 09:53:51;;;;;;;4.47;1.75;;;;;;;30.23;23.89;100007.72;4365555;32;34189;-77
2022/06/16 09:56:37;;;;;;;3.25;1.60;;;;;;;30.43;24.31;100012.72;4365485;32;34379;-77
2022/06/16 09:59:15;;;;;;;4.12;1.60;;;;;;;30.48;23.98;100014.56;4377342;32;34476;-77
2022/06/16 10:01:55;;;;;;;5.07;1.62;;;;;;;30.38;24.15;100024.22;4372286;32;34460;-77
2022/06/16 10:04:26;;;;;;;3.75;1.58;;;;;;;30.30;23.04;100018.53;4369212;32;34104;-78
2022/06/16 10:07:16;;;;;;;3.35;1.70;;;;;;;30.75;23.09;100016.19;4364775;32;33359;-77
2022/06/16 10:09:56;;;;;;;4.37;1.60;;;;;;;31.03;23.09;100011.81;4365076;32;33603;-77
2022/06/16 10:12:32;;;;;;;4.60;2.08;;;;;;;31.30;23.09;100004.06;4352618;32;33877;-77
2022/06/16 10:15:18;;;;;;;19.50;2.72;;;;;;;31.44;23.47;100007.50;4366508;32;33174;-82
2022/06/16 10:17:51;;;;;;;5.32;1.95;;;;;;;31.53;23.73;100013.16;4358952;32;32085;-82
2022/06/16 10:20:21;;;;;;;5.25;1.65;;;;;;;31.36;23.29;100003.53;4359077;32;32435;-83
2022/06/16 10:23:06;;;;;;;4.57;1.70;;;;;;;31.60;21.96;100007.78;4371083;32;35289;-83
2022/06/16 10:25:39;;;;;;;18.92;2.62;;;;;;;31.86;22.42;99997.12;4370518;32;34446;-83
2022/06/16 10:28:15;;;;;;;6.95;1.80;;;;;;;32.01;23.55;100001.38;4358866;32;32189;-82
2022/06/16 10:30:46;;;;;;;7.30;1.90;;;;;;;32.18;23.91;100001.25;4370379;32;33888;-83
2022/06/16 10:33:30;;;;;;;3.90;1.98;;;;;;;32.31;23.03;100003.00;4369401;32;35526;-83
2022/06/16 10:36:23;;;;;;;6.77;1.80;;;;;;;32.39;22.30;99998.44;4359203;32;34268;-82
2022/06/16 10:39:20;;;;;;;3.33;1.83;;;;;;;32.32;21.69;100007.50;4360610;32;33378;-83
2022/06/16 10:42:00;;;;;;;3.85;1.70;;;;;;;32.37;21.23;100009.31;4358859;32;32387;-84
2022/06/16 10:44:31;;;;;;;4.68;1.80;;;;;;;32.33;21.52;100009.19;4358995;32;33633;-83
2022/06/16 10:47:02;;;;;;;4.07;2.00;;;;;;;32.50;21.91;100001.69;4370809;32;34086;-82
2022/06/16 10:49:34;;;;;;;5.62;2.70;;;;;;;32.59;22.08;99999.56;4360022;32;33109;-82
2022/06/16 10:52:08;;;;;;;5.03;1.90;;;;;;;32.49;21.32;100000.03;4372940;32;33568;-82
2022/06/16 10:54:44;;;;;;;6.03;1.60;;;;;;;32.58;20.62;100006.44;4370501;32;33039;-82
2022/06/16 10:57:23;;;;;;;4.12;1.92;;;;;;;32.66;19.97;100003.50;4372170;32;33909;-82
2022/06/16 11:00:11;;;;;;;4.22;1.77;;;;;;;32.74;20.84;100004.62;4369391;32;34435;-82
2022/06/16 11:03:05;;;;;;;8.02;1.70;;;;;;;32.89;21.66;99997.47;4373256;32;33617;-82
2022/06/16 11:05:47;;;;;;;4.40;1.50;;;;;;;33.02;20.65;99988.63;4362709;32;34481;-82
2022/06/16 11:08:16;;;;;;;3.80;1.55;;;;;;;33.01;20.07;99983.28;4364707;32;32574;-82
2022/06/16 11:11:07;;;;;;;4.10;1.80;;;;;;;33.36;20.11;99967.47;4354803;32;32129;-82
2022/06/16 11:13:38;;;;;;;3.20;1.75;;;;;;;33.21;19.34;99970.16;4355259;32;32204;-81
2022/06/16 11:16:14;;;;;;;5.93;2.20;;;;;;;33.35;20.32;99976.38;4372497;32;32623;-81
2022/06/16 11:18:45;;;;;;;5.30;2.05;;;;;;;33.42;19.98;99965.22;4378141;32;34112;-81
2022/06/16 11:21:21;;;;;;;5.37;1.98;;;;;;;33.69;20.59;99963.69;4368412;32;33535;-82
2022/06/16 11:23:55;;;;;;;5.43;1.60;;;;;;;33.86;21.23;99956.91;4364125;32;34803;-82
2022/06/16 11:26:31;;;;;;;5.62;1.70;;;;;;;33.70;18.48;99953.97;4354728;32;34477;-82
2022/06/16 11:29:11;;;;;;;4.12;1.75;;;;;;;33.97;19.02;99947.50;4359322;32;33809;-82
2022/06/16 11:31:42;;;;;;;3.47;1.50;;;;;;;34.05;19.05;99942.88;4367106;32;32761;-82
2022/06/16 11:34:19;;;;;;;3.65;1.70;;;;;;;34.02;18.67;99933.03;4373553;32;33637;-80
2022/06/16 11:37:03;;;;;;;4.00;1.87;;;;;;;34.18;20.99;99947.34;4361115;32;33051;-82
2022/06/16 11:39:37;;;;;;;3.20;1.70;;;;;;;34.20;19.56;99944.97;4360631;32;33858;-82
2022/06/16 11:42:31;;;;;;;3.58;1.60;;;;;;;34.15;18.90;99938.69;4364702;32;31976;-82
2022/06/16 11:45:38;;;;;;;7.18;1.90;;;;;;;34.15;18.18;99942.38;4366550;32;32327;-82
2022/06/16 11:48:14;;;;;;;3.60;1.67;;;;;;;34.27;20.56;99933.78;4373336;32;35170;-82
2022/06/16 11:51:00;;;;;;;3.70;1.80;;;;;;;34.16;18.91;99924.09;4392962;32;34225;-82
2022/06/16 11:53:45;;;;;;;5.40;1.85;;;;;;;34.18;19.23;99909.47;4349840;32;34273;-82
2022/06/16 11:56:23;;;;;;;4.15;1.75;;;;;;;34.21;19.63;99918.13;4351101;32;34054;-78
2022/06/16 11:59:13;;;;;;;5.97;1.80;;;;;;;33.54;19.21;99911.16;4353479;32;152497;-82
2022/06/16 12:01:47;;;;;;;4.03;1.60;;;;;;;33.65;19.71;99909.47;4377420;32;33870;-81
2022/06/16 12:04:36;;;;;;;3.50;1.70;;;;;;;33.44;20.00;99905.94;4364854;32;33316;-82
2022/06/16 12:07:22;;;;;;;5.15;1.92;;;;;;;33.45;19.95;99909.63;4352246;32;33335;-82
2022/06/16 12:10:09;;;;;;;5.57;1.83;;;;;;;33.74;20.37;99909.34;4364272;32;34965;-82
2022/06/16 12:12:51;;;;;;;7.32;2.30;;;;;;;34.10;19.43;99908.44;4352102;32;32552;-82
2022/06/16 12:15:45;;;;;;;6.32;2.00;;;;;;;34.21;19.12;99900.19;4352035;32;33311;-82